Time;durP1;ratioP1;P1;durP2;ratioP2;P2;SDS_P1;SDS_P2;PMS_P1;PMS_P2;Temp;Humidity;BMP_temperature;BMP_pressure;BME280_temperature;BME280_humidity;BME280_pressure;Samples;Min_cycle;Max_cycle;Signal;HPM_P1;HPM_P2
2023/02/17 00:01:21;;;;;;;9.30;3.58;;;11.30;99.90;;;;;;5066639;28;20103;-75
2023/02/17 00:03:48;;;;;;;7.15;3.40;;;11.30;99.90;;;;;;5057482;28;20048;-74
2023/02/17 00:06:15;;;;;;;5.53;3.35;;;11.30;99.90;;;;;;5061245;28;20029;-74
2023/02/17 00:08:41;;;;;;;5.53;3.40;;;11.30;99.90;;;;;;5065633;28;20564;-74
2023/02/17 00:11:06;;;;;;;6.70;3.13;;;11.30;99.90;;;;;;5064464;28;20044;-75
2023/02/17 00:13:32;;;;;;;6.78;3.40;;;11.30;99.90;;;;;;5062170;28;20021;-74
2023/02/17 00:15:58;;;;;;;6.70;3.60;;;11.30;99.90;;;;;;5056562;28;20033;-74
2023/02/17 00:18:24;;;;;;;6.90;3.33;;;11.30;99.90;;;;;;5059360;28;20079;-74
2023/02/17 00:20:50;;;;;;;4.55;3.28;;;11.30;99.90;;;;;;5062872;28;20035;-74
2023/02/17 00:23:15;;;;;;;4.93;3.40;;;11.20;99.90;;;;;;5062253;28;20120;-74
2023/02/17 00:25:41;;;;;;;6.30;3.05;;;11.20;99.90;;;;;;5059078;28;20512;-74
2023/02/17 00:28:07;;;;;;;6.35;3.28;;;11.20;99.90;;;;;;5052908;28;20033;-74
2023/02/17 00:30:32;;;;;;;6.43;3.35;;;11.20;99.90;;;;;;5051973;28;20021;-74
2023/02/17 00:32:58;;;;;;;7.55;3.53;;;11.20;99.90;;;;;;5051965;28;20119;-73
2023/02/17 00:35:24;;;;;;;5.25;3.03;;;11.10;99.90;;;;;;5051049;28;20486;-74
2023/02/17 00:37:50;;;;;;;5.88;3.30;;;11.10;99.90;;;;;;5051548;28;20032;-74
2023/02/17 00:40:16;;;;;;;5.47;3.13;;;11.10;99.90;;;;;;5050722;28;20035;-74
2023/02/17 00:42:41;;;;;;;7.30;3.13;;;11.20;99.90;;;;;;5050888;28;20039;-73
2023/02/17 00:45:07;;;;;;;6.50;3.20;;;11.20;99.90;;;;;;5064850;28;20021;-73
2023/02/17 00:47:33;;;;;;;4.50;2.70;;;11.20;99.90;;;;;;5064152;28;20413;-74
2023/02/17 00:49:59;;;;;;;5.22;2.80;;;11.20;99.90;;;;;;5062118;28;20032;-74
2023/02/17 00:52:24;;;;;;;4.70;2.88;;;11.20;99.90;;;;;;5071072;28;20036;-77
2023/02/17 00:54:50;;;;;;;5.60;3.25;;;11.20;99.90;;;;;;5062003;28;20058;-73
2023/02/17 00:57:15;;;;;;;9.15;3.83;;;11.20;99.90;;;;;;5051234;28;20031;-73
2023/02/17 00:59:41;;;;;;;5.85;3.10;;;11.30;99.90;;;;;;5050822;28;20040;-73
2023/02/17 01:02:07;;;;;;;6.38;3.20;;;11.30;99.90;;;;;;5051504;28;20086;-74
2023/02/17 01:04:32;;;;;;;7.65;3.20;;;11.30;99.90;;;;;;5050936;28;20405;-73
2023/02/17 01:06:58;;;;;;;5.32;3.25;;;11.40;99.90;;;;;;5052713;28;20064;-73
2023/02/17 01:09:24;;;;;;;7.13;3.22;;;11.40;99.90;;;;;;5052364;28;20033;-76
2023/02/17 01:11:49;;;;;;;5.50;2.90;;;11.40;99.90;;;;;;5051223;28;20036;-74
2023/02/17 01:14:15;;;;;;;5.43;3.38;;;11.40;99.90;;;;;;5051329;28;20025;-74
2023/02/17 01:16:46;;;;;;;7.05;2.75;;;11.40;99.90;;;;;;5050725;28;20025;-74
2023/02/17 01:19:15;;;;;;;4.50;3.20;;;11.40;99.90;;;;;;5055313;28;20025;-74
2023/02/17 01:21:40;;;;;;;8.57;3.50;;;11.50;99.90;;;;;;5055082;28;20036;-74
2023/02/17 01:24:08;;;;;;;6.90;3.40;;;11.50;99.90;;;;;;5055579;28;20029;-73
2023/02/17 01:26:35;;;;;;;6.15;3.53;;;11.50;99.90;;;;;;5055950;28;20029;-74
2023/02/17 01:29:02;;;;;;;5.97;2.95;;;11.50;99.90;;;;;;5055386;28;20029;-73
2023/02/17 01:31:28;;;;;;;7.03;2.90;;;11.50;99.90;;;;;;5056037;28;20029;-74
2023/02/17 01:33:59;;;;;;;6.03;3.25;;;11.40;99.90;;;;;;5056296;28;20039;-74
2023/02/17 01:36:24;;;;;;;7.07;3.20;;;11.40;99.90;;;;;;5056113;28;20049;-75
2023/02/17 01:38:50;;;;;;;9.02;3.67;;;11.40;99.90;;;;;;5054859;28;20355;-74
2023/02/17 01:41:18;;;;;;;5.25;3.58;;;11.40;99.90;;;;;;5056401;28;20034;-73
2023/02/17 01:44:05;;;;;;;7.43;3.53;;;11.40;99.90;;;;;;5056143;28;20039;-74
2023/02/17 01:46:35;;;;;;;6.03;3.22;;;11.40;99.90;;;;;;5054606;28;20053;-74
2023/02/17 01:49:03;;;;;;;6.07;3.40;;;11.30;99.90;;;;;;5054620;28;20470;-74
2023/02/17 01:51:35;;;;;;;5.10;3.08;;;11.30;99.90;;;;;;5055400;28;20029;-74
2023/02/17 01:54:23;;;;;;;6.13;3.35;;;11.30;99.90;;;;;;5054309;28;20398;-74
2023/02/17 01:56:49;;;;;;;8.88;2.97;;;11.30;99.90;;;;;;5055231;28;20035;-74
2023/02/17 01:59:19;;;;;;;8.93;3.05;;;11.30;99.90;;;;;;5054425;28;20029;-74
2023/02/17 02:01:48;;;;;;;5.65;3.22;;;11.30;99.90;;;;;;5055114;28;20021;-74
2023/02/17 02:04:16;;;;;;;6.15;2.80;;;11.30;99.90;;;;;;5055509;28;20052;-74
2023/02/17 02:06:43;;;;;;;7.75;3.00;;;11.30;99.90;;;;;;5054090;28;20025;-74
2023/02/17 02:09:23;;;;;;;7.55;3.30;;;11.40;99.90;;;;;;5054361;28;20436;-74
2023/02/17 02:11:49;;;;;;;10.75;3.35;;;11.40;99.90;;;;;;5053490;28;20052;-74
2023/02/17 02:14:17;;;;;;;8.38;3.03;;;11.40;99.90;;;;;;5055661;28;20035;-74
2023/02/17 02:17:14;;;;;;;8.07;3.08;;;11.40;99.90;;;;;;5053979;28;20032;-74
2023/02/17 02:20:10;;;;;;;6.35;3.10;;;11.40;99.90;;;;;;5054957;28;20465;-75
2023/02/17 02:23:11;;;;;;;4.88;2.72;;;11.40;99.90;;;;;;5053526;28;20028;-74
2023/02/17 02:26:01;;;;;;;8.07;3.42;;;11.30;99.90;;;;;;5053487;28;20025;-74
2023/02/17 02:28:41;;;;;;;8.10;3.35;;;11.30;99.90;;;;;;5055087;28;20040;-79
2023/02/17 02:31:24;;;;;;;8.00;2.92;;;11.30;99.90;;;;;;5054244;28;20059;-74
2023/02/17 02:33:58;;;;;;;6.03;3.13;;;11.30;99.90;;;;;;5053352;28;20412;-74
2023/02/17 02:36:41;;;;;;;7.18;2.90;;;11.30;99.90;;;;;;5055207;28;20483;-74
2023/02/17 02:39:12;;;;;;;7.15;3.28;;;11.30;99.90;;;;;;5054926;28;20074;-74
2023/02/17 02:41:49;;;;;;;7.50;3.22;;;11.30;99.90;;;;;;5053143;28;20029;-74
2023/02/17 02:44:19;;;;;;;7.18;2.88;;;11.30;99.90;;;;;;5053841;28;20477;-74
2023/02/17 02:46:45;;;;;;;7.50;2.90;;;11.30;99.90;;;;;;5054494;28;20028;-74
2023/02/17 02:49:11;;;;;;;7.45;3.25;;;11.20;99.90;;;;;;5054834;28;20035;-74
2023/02/17 02:51:36;;;;;;;6.18;2.63;;;11.20;99.90;;;;;;5052891;28;20036;-74
2023/02/17 02:54:08;;;;;;;5.13;2.80;;;11.20;99.90;;;;;;5053635;28;20021;-74
2023/02/17 02:57:06;;;;;;;6.82;2.75;;;11.30;99.90;;;;;;5052922;28;20029;-74
2023/02/17 02:59:56;;;;;;;6.05;2.63;;;11.30;99.90;;;;;;5041608;28;20049;-79
2023/02/17 03:02:35;;;;;;;5.72;2.30;;;11.30;99.90;;;;;;5053429;28;20029;-74
2023/02/17 03:05:12;;;;;;;6.45;2.33;;;11.30;99.90;;;;;;5053204;28;20040;-74
2023/02/17 03:08:14;;;;;;;6.00;1.92;;;11.30;99.90;;;;;;5052843;28;20095;-74
2023/02/17 03:10:49;;;;;;;5.85;2.10;;;11.30;99.90;;;;;;5053006;28;20021;-73
2023/02/17 03:13:16;;;;;;;6.07;2.58;;;11.20;99.90;;;;;;5054974;28;20087;-73
2023/02/17 03:15:42;;;;;;;6.93;2.13;;;11.20;99.90;;;;;;5052709;28;20035;-73
2023/02/17 03:18:07;;;;;;;4.97;2.05;;;11.20;99.90;;;;;;5053906;28;20079;-73
2023/02/17 03:21:11;;;;;;;3.28;1.98;;;11.20;99.90;;;;;;5052459;28;20040;-77
2023/02/17 03:23:36;;;;;;;4.72;1.95;;;11.10;99.90;;;;;;5046311;28;20040;-74
2023/02/17 03:26:02;;;;;;;5.07;2.45;;;11.10;99.90;;;;;;5054372;28;20093;-74
2023/02/17 03:28:28;;;;;;;5.07;2.30;;;11.10;99.90;;;;;;5054166;28;20067;-73
2023/02/17 03:30:53;;;;;;;6.28;1.85;;;11.10;99.90;;;;;;5053369;28;20466;-74
2023/02/17 03:33:19;;;;;;;4.72;2.25;;;11.10;99.90;;;;;;5053851;28;20020;-73
2023/02/17 03:35:44;;;;;;;5.53;2.00;;;11.10;99.90;;;;;;5051791;28;20056;-74
2023/02/17 03:38:10;;;;;;;4.20;2.13;;;11.10;99.90;;;;;;5051946;28;20409;-74
2023/02/17 03:40:35;;;;;;;4.28;2.08;;;11.10;99.90;;;;;;5051035;28;20029;-74
2023/02/17 03:43:01;;;;;;;4.53;2.30;;;11.10;99.90;;;;;;5052261;28;20025;-74
2023/02/17 03:45:27;;;;;;;4.03;1.73;;;11.10;99.90;;;;;;5053912;28;20025;-73
2023/02/17 03:47:52;;;;;;;5.03;2.10;;;11.00;99.90;;;;;;5051687;28;20055;-74
2023/02/17 03:50:18;;;;;;;4.75;1.90;;;11.10;99.90;;;;;;5052249;28;20021;-75
2023/02/17 03:52:44;;;;;;;5.43;2.03;;;11.10;99.90;;;;;;5051514;28;20068;-74
2023/02/17 03:55:09;;;;;;;5.00;2.25;;;11.10;99.90;;;;;;5053587;28;20386;-73
2023/02/17 03:57:35;;;;;;;5.18;1.85;;;11.10;99.90;;;;;;5051786;28;20458;-78
2023/02/17 04:00:00;;;;;;;4.32;1.88;;;11.10;99.90;;;;;;5052197;28;20033;-73
2023/02/17 04:02:26;;;;;;;3.08;1.42;;;11.10;99.90;;;;;;5053639;28;20410;-73
2023/02/17 04:04:51;;;;;;;3.97;1.60;;;11.10;99.90;;;;;;5052734;28;20553;-75
2023/02/17 04:07:17;;;;;;;3.97;1.58;;;11.10;99.90;;;;;;5053232;28;20108;-73
2023/02/17 04:09:43;;;;;;;2.17;1.45;;;11.10;99.90;;;;;;5050603;28;20025;-74
2023/02/17 04:12:08;;;;;;;3.65;1.50;;;11.10;99.90;;;;;;5051853;28;20055;-74
2023/02/17 04:14:34;;;;;;;3.17;1.77;;;11.10;99.90;;;;;;5051860;28;20398;-76
2023/02/17 04:17:00;;;;;;;4.43;1.75;;;11.10;99.90;;;;;;5051976;28;20074;-74
2023/02/17 04:19:25;;;;;;;2.70;1.55;;;11.10;99.90;;;;;;5052094;28;20044;-73
2023/02/17 04:21:51;;;;;;;4.50;1.60;;;11.10;99.90;;;;;;5051385;28;20063;-73
2023/02/17 04:24:16;;;;;;;2.83;1.52;;;11.10;99.90;;;;;;5061262;28;20039;-73
2023/02/17 04:26:42;;;;;;;2.22;1.13;;;11.10;99.90;;;;;;5071429;28;20367;-74
2023/02/17 04:29:07;;;;;;;4.40;1.50;;;11.10;99.90;;;;;;5072148;28;20119;-73
2023/02/17 04:31:33;;;;;;;4.05;1.45;;;11.10;99.90;;;;;;5072920;28;20493;-75
2023/02/17 04:33:59;;;;;;;4.05;1.60;;;11.10;99.90;;;;;;5071293;28;20024;-74
2023/02/17 04:36:24;;;;;;;4.47;1.60;;;11.10;99.90;;;;;;5072909;28;20445;-74
2023/02/17 04:38:50;;;;;;;8.70;1.65;;;11.10;99.90;;;;;;5072590;28;20036;-73
2023/02/17 04:41:15;;;;;;;4.10;1.48;;;11.10;99.90;;;;;;5072943;28;20407;-74
2023/02/17 04:43:41;;;;;;;2.10;1.38;;;11.10;99.90;;;;;;5072591;28;20031;-74
2023/02/17 04:46:07;;;;;;;1.25;1.10;;;11.10;99.90;;;;;;5073019;28;20031;-73
2023/02/17 04:48:32;;;;;;;2.17;1.20;;;11.10;99.90;;;;;;5071688;28;20075;-73
2023/02/17 04:50:58;;;;;;;3.42;1.63;;;11.10;99.90;;;;;;5071216;28;20027;-73
2023/02/17 04:53:23;;;;;;;3.28;1.50;;;11.10;99.90;;;;;;5070773;28;20466;-74
2023/02/17 04:55:51;;;;;;;3.08;1.55;;;11.00;99.90;;;;;;5072199;28;20078;-74
2023/02/17 04:58:16;;;;;;;2.60;1.52;;;11.00;99.90;;;;;;5064214;28;20083;-73
2023/02/17 05:00:42;;;;;;;4.40;1.50;;;11.00;99.90;;;;;;5051850;28;20453;-74
2023/02/17 05:03:08;;;;;;;6.95;2.10;;;11.00;99.90;;;;;;5053069;28;20029;-74
2023/02/17 05:05:33;;;;;;;3.83;2.20;;;11.00;99.90;;;;;;5051478;28;20036;-74
2023/02/17 05:07:59;;;;;;;5.85;2.35;;;10.90;99.90;;;;;;5050765;28;20033;-74
2023/02/17 05:10:25;;;;;;;6.88;2.53;;;10.90;99.90;;;;;;5051511;28;20033;-73
2023/02/17 05:12:51;;;;;;;6.57;2.80;;;10.90;99.90;;;;;;5050772;28;20028;-74
2023/02/17 05:15:17;;;;;;;4.03;2.47;;;10.90;99.90;;;;;;5052546;28;20053;-74
2023/02/17 05:17:43;;;;;;;3.50;2.00;;;10.90;99.90;;;;;;5050541;28;20370;-74
2023/02/17 05:20:09;;;;;;;3.83;1.50;;;10.90;99.90;;;;;;5050926;28;20029;-74
2023/02/17 05:22:35;;;;;;;2.42;1.67;;;10.90;99.90;;;;;;5051296;28;20029;-74
2023/02/17 05:25:00;;;;;;;3.15;1.50;;;10.90;99.90;;;;;;5050546;28;20029;-75
2023/02/17 05:27:26;;;;;;;3.78;1.95;;;10.90;99.90;;;;;;5052679;28;20056;-74
2023/02/17 05:29:52;;;;;;;3.15;1.42;;;10.90;99.90;;;;;;5050451;28;20462;-74
2023/02/17 05:32:17;;;;;;;2.75;1.30;;;10.90;99.90;;;;;;5051017;28;20454;-74
2023/02/17 05:34:43;;;;;;;6.63;1.67;;;10.90;99.90;;;;;;5049868;28;20027;-75
2023/02/17 05:37:10;;;;;;;1.98;1.38;;;10.90;99.90;;;;;;5052502;28;20103;-74
2023/02/17 05:39:35;;;;;;;3.10;1.48;;;10.90;99.90;;;;;;5050886;28;20576;-74
2023/02/17 05:42:01;;;;;;;3.38;1.45;;;10.90;99.90;;;;;;5050676;28;20029;-74
2023/02/17 05:44:27;;;;;;;5.15;1.40;;;10.90;99.90;;;;;;5052536;28;20025;-75
2023/02/17 05:46:52;;;;;;;3.38;1.60;;;10.80;99.90;;;;;;5050351;28;20031;-75
2023/02/17 05:49:18;;;;;;;2.92;1.40;;;10.80;99.90;;;;;;5050662;28;20347;-74
2023/02/17 05:51:44;;;;;;;1.92;1.35;;;10.80;99.90;;;;;;5050907;28;20115;-75
2023/02/17 05:54:09;;;;;;;2.17;1.23;;;10.80;99.90;;;;;;5050686;28;20085;-74
2023/02/17 05:56:35;;;;;;;2.28;1.60;;;10.80;99.90;;;;;;5052090;28;20087;-74
2023/02/17 05:59:00;;;;;;;3.05;1.67;;;10.70;99.90;;;;;;5049951;28;20028;-74
2023/02/17 06:01:26;;;;;;;3.22;1.70;;;10.70;99.90;;;;;;5050778;28;20036;-74
2023/02/17 06:03:52;;;;;;;4.05;1.40;;;10.80;99.90;;;;;;5050555;28;20060;-74
2023/02/17 06:06:18;;;;;;;2.90;1.20;;;10.70;99.90;;;;;;5055555;28;20029;-74
2023/02/17 06:08:44;;;;;;;2.75;1.42;;;10.80;99.90;;;;;;5053848;28;20116;-76
2023/02/17 06:11:09;;;;;;;3.85;1.58;;;10.80;99.90;;;;;;5055672;28;20032;-74
2023/02/17 06:13:35;;;;;;;1.52;1.02;;;10.80;99.90;;;;;;5055287;28;20025;-74
2023/02/17 06:16:00;;;;;;;5.25;1.30;;;10.80;99.90;;;;;;5053641;28;20413;-74
2023/02/17 06:18:26;;;;;;;2.63;1.40;;;10.80;99.90;;;;;;5055559;28;20029;-74
2023/02/17 06:20:55;;;;;;;3.00;1.35;;;10.80;99.90;;;;;;5054528;28;20069;-73
2023/02/17 06:23:20;;;;;;;2.67;1.33;;;10.80;99.90;;;;;;5054075;28;20029;-74
2023/02/17 06:25:46;;;;;;;3.65;1.30;;;10.80;99.90;;;;;;5054508;28;20051;-74
2023/02/17 06:28:12;;;;;;;2.35;1.02;;;10.90;99.90;;;;;;5055477;28;20036;-74
2023/02/17 06:30:37;;;;;;;3.90;1.40;;;10.90;99.90;;;;;;5054846;28;20540;-74
2023/02/17 06:33:03;;;;;;;3.83;1.40;;;10.90;99.90;;;;;;5054406;28;20454;-73
2023/02/17 06:35:28;;;;;;;2.88;1.40;;;10.80;99.90;;;;;;5053372;28;20132;-73
2023/02/17 06:37:54;;;;;;;3.70;1.35;;;10.80;99.90;;;;;;5053176;28;20124;-73
2023/02/17 06:40:20;;;;;;;1.40;1.08;;;10.80;99.90;;;;;;5055017;28;20043;-73
2023/02/17 06:42:45;;;;;;;2.70;1.20;;;10.80;99.90;;;;;;5053119;28;20054;-75
2023/02/17 06:45:11;;;;;;;3.38;1.25;;;10.80;99.90;;;;;;5054502;28;20576;-73
2023/02/17 06:47:36;;;;;;;3.45;1.40;;;10.90;99.90;;;;;;5053615;28;20115;-74
2023/02/17 06:50:02;;;;;;;2.78;1.33;;;10.90;99.90;;;;;;5054191;28;20053;-74
2023/02/17 06:52:28;;;;;;;2.17;1.20;;;10.90;99.90;;;;;;5053451;28;20029;-74
2023/02/17 06:54:53;;;;;;;1.70;1.05;;;10.90;99.90;;;;;;5052783;28;20378;-74
2023/02/17 06:57:19;;;;;;;2.15;1.23;;;10.90;99.90;;;;;;5054429;28;20530;-74
2023/02/17 06:59:45;;;;;;;1.73;1.10;;;11.00;99.90;;;;;;5054503;28;20033;-78
2023/02/17 07:02:12;;;;;;;2.03;1.00;;;11.00;99.90;;;;;;5053454;28;20029;-74
2023/02/17 07:04:39;;;;;;;2.20;1.13;;;11.00;99.90;;;;;;5053249;28;20024;-74
2023/02/17 07:07:04;;;;;;;3.60;1.20;;;11.00;99.90;;;;;;5052620;28;20116;-74
2023/02/17 07:09:30;;;;;;;3.95;1.60;;;11.00;99.90;;;;;;5053443;28;20097;-75
2023/02/17 07:11:58;;;;;;;2.78;1.55;;;11.10;99.90;;;;;;5052513;28;20028;-74
2023/02/17 07:14:25;;;;;;;2.63;1.55;;;11.10;99.90;;;;;;5054273;28;20021;-74
2023/02/17 07:16:51;;;;;;;3.38;1.90;;;11.10;99.90;;;;;;5051818;28;20051;-74
2023/02/17 07:19:17;;;;;;;4.40;1.92;;;11.10;99.90;;;;;;5054422;28;20033;-73
2023/02/17 07:21:43;;;;;;;6.20;1.85;;;11.10;99.90;;;;;;5052943;28;20074;-73
2023/02/17 07:24:09;;;;;;;3.58;1.65;;;11.10;99.90;;;;;;5052599;28;20486;-73
2023/02/17 07:26:39;;;;;;;2.00;1.60;;;11.20;99.90;;;;;;5052868;28;20529;-74
2023/02/17 07:29:06;;;;;;;3.05;1.60;;;11.20;99.90;;;;;;5052799;28;20064;-73
2023/02/17 07:31:32;;;;;;;5.93;1.80;;;11.20;99.90;;;;;;5052537;28;20029;-74
2023/02/17 07:33:59;;;;;;;2.45;1.67;;;11.20;99.90;;;;;;5052032;28;20492;-74
2023/02/17 07:36:24;;;;;;;6.45;1.75;;;11.20;99.90;;;;;;5051926;28;20049;-74
2023/02/17 07:38:50;;;;;;;5.88;1.60;;;11.20;99.90;;;;;;5052004;28;20059;-74
2023/02/17 07:41:19;;;;;;;6.53;1.70;;;11.30;99.90;;;;;;5052601;28;20470;-73
2023/02/17 07:43:45;;;;;;;4.45;1.70;;;11.20;99.90;;;;;;5052551;28;20024;-74
2023/02/17 07:46:12;;;;;;;2.42;1.50;;;11.30;99.90;;;;;;5053122;28;20431;-74
2023/02/17 07:48:38;;;;;;;5.03;1.70;;;11.30;99.90;;;;;;5054035;28;20116;-73
2023/02/17 07:51:15;;;;;;;4.53;1.83;;;11.30;99.90;;;;;;5051598;28;20124;-74
2023/02/17 07:53:41;;;;;;;3.38;1.70;;;11.20;99.90;;;;;;5052370;28;20029;-73
2023/02/17 07:56:09;;;;;;;3.40;1.73;;;11.20;99.90;;;;;;5051786;28;20032;-73
2023/02/17 07:58:37;;;;;;;4.65;2.00;;;11.20;99.90;;;;;;5053724;28;20047;-73
2023/02/17 08:01:07;;;;;;;4.18;1.80;;;11.20;99.90;;;;;;5051965;28;20438;-73
2023/02/17 08:03:33;;;;;;;4.63;1.65;;;11.10;99.90;;;;;;5052358;28;20048;-73
2023/02/17 08:05:59;;;;;;;4.50;1.80;;;11.10;99.90;;;;;;5051613;28;20056;-74
2023/02/17 08:13:56;;;;;;;4.15;2.15;;;11.00;99.90;;;;;;5052589;28;20035;-76
2023/02/17 08:16:22;;;;;;;4.97;2.00;;;11.00;99.90;;;;;;5053528;28;20104;-75
2023/02/17 08:18:48;;;;;;;6.07;2.28;;;11.00;99.90;;;;;;5053015;28;20458;-77
2023/02/17 08:21:13;;;;;;;4.35;1.88;;;11.00;99.90;;;;;;5051722;28;20065;-73
2023/02/17 08:23:39;;;;;;;9.23;1.98;;;10.90;99.90;;;;;;5051954;28;20029;-73
2023/02/17 08:26:05;;;;;;;4.80;2.10;;;10.90;99.90;;;;;;5052813;28;20029;-73
2023/02/17 08:28:32;;;;;;;4.18;1.90;;;10.90;99.90;;;;;;5052807;28;20108;-73
2023/02/17 08:30:57;;;;;;;6.15;2.30;;;10.90;99.90;;;;;;5052492;28;20052;-73
2023/02/17 08:33:23;;;;;;;4.68;2.17;;;10.90;99.90;;;;;;5051872;28;20055;-72
2023/02/17 08:35:48;;;;;;;4.32;2.03;;;10.90;99.90;;;;;;5051091;28;20049;-74
2023/02/17 08:38:15;;;;;;;4.15;1.95;;;10.90;99.90;;;;;;5042954;28;20029;-78
2023/02/17 08:40:40;;;;;;;3.60;2.08;;;10.90;99.90;;;;;;5054378;28;20036;-73
2023/02/17 08:43:07;;;;;;;3.40;1.83;;;10.90;99.90;;;;;;5054548;28;20395;-74
2023/02/17 08:45:33;;;;;;;3.00;2.08;;;10.90;99.90;;;;;;5054453;28;20021;-73
2023/02/17 08:47:58;;;;;;;3.40;1.92;;;10.90;99.90;;;;;;5052165;28;20025;-73
2023/02/17 08:50:24;;;;;;;5.38;2.10;;;10.90;99.90;;;;;;5064937;28;20039;-72
2023/02/17 08:52:50;;;;;;;3.67;1.70;;;10.90;99.90;;;;;;5071324;28;20115;-75
2023/02/17 08:55:17;;;;;;;4.63;1.90;;;10.90;99.90;;;;;;5067893;28;20063;-73
2023/02/17 08:57:43;;;;;;;6.95;1.70;;;11.00;99.90;;;;;;5057215;28;20016;-73
2023/02/17 09:00:10;;;;;;;3.30;1.83;;;11.00;99.90;;;;;;5060268;28;20542;-73
2023/02/17 09:02:36;;;;;;;4.38;1.60;;;11.00;99.90;;;;;;5052181;28;20031;-73
2023/02/17 09:05:03;;;;;;;4.82;1.73;;;11.00;99.90;;;;;;5067295;28;20033;-74
2023/02/17 09:07:29;;;;;;;4.63;1.80;;;11.00;99.90;;;;;;5051160;28;20036;-73
2023/02/17 09:09:55;;;;;;;3.58;1.75;;;11.00;99.90;;;;;;5030451;28;20033;-73
2023/02/17 09:12:20;;;;;;;2.97;1.55;;;10.90;99.90;;;;;;5051503;28;20035;-73
2023/02/17 09:14:46;;;;;;;2.83;1.42;;;10.90;99.90;;;;;;5037288;28;20018;-73
2023/02/17 09:17:11;;;;;;;5.22;1.92;;;10.90;99.90;;;;;;5065313;28;20213;-73
2023/02/17 09:19:39;;;;;;;3.88;1.52;;;10.90;99.90;;;;;;5056072;28;20024;-73
2023/02/17 09:22:05;;;;;;;5.50;1.90;;;10.90;99.90;;;;;;5040660;28;20038;-74
2023/02/17 09:24:32;;;;;;;3.38;1.75;;;10.90;99.90;;;;;;5048130;28;20108;-74
2023/02/17 09:26:58;;;;;;;3.92;1.90;;;10.90;99.90;;;;;;5050126;28;20040;-74
2023/02/17 09:29:24;;;;;;;3.75;1.52;;;10.90;99.90;;;;;;5059485;28;20115;-73
2023/02/17 09:31:50;;;;;;;7.68;1.90;;;10.90;99.90;;;;;;5057314;28;20033;-73
2023/02/17 09:34:15;;;;;;;3.58;1.90;;;11.00;99.90;;;;;;5051560;28;20104;-73
2023/02/17 09:36:41;;;;;;;3.13;1.92;;;11.00;99.90;;;;;;5041201;28;20095;-74
2023/02/17 09:39:08;;;;;;;2.60;1.60;;;11.00;99.90;;;;;;5052265;28;20033;-73
2023/02/17 09:41:54;;;;;;;5.90;1.70;;;11.00;99.90;;;;;;5060133;28;20121;-73
2023/02/17 09:44:23;;;;;;;3.38;1.70;;;11.10;99.90;;;;;;5060517;28;20374;-74
2023/02/17 09:46:58;;;;;;;3.53;1.65;;;11.10;99.90;;;;;;5054372;28;20052;-74
2023/02/17 09:49:27;;;;;;;6.40;1.95;;;11.20;99.90;;;;;;5059621;28;20028;-74
2023/02/17 09:52:24;;;;;;;7.18;1.98;;;11.30;99.90;;;;;;5057016;28;20033;-77
2023/02/17 09:55:02;;;;;;;2.80;1.65;;;11.30;99.90;;;;;;5054021;28;20462;-73
2023/02/17 09:57:43;;;;;;;4.18;1.55;;;11.40;99.90;;;;;;5053776;28;20025;-76
2023/02/17 10:00:14;;;;;;;2.80;1.70;;;11.50;99.90;;;;;;5053086;28;20075;-74
2023/02/17 10:02:57;;;;;;;4.20;2.17;;;11.50;99.90;;;;;;5051786;28;20029;-73
2023/02/17 10:05:28;;;;;;;2.80;1.63;;;11.50;99.90;;;;;;5037946;28;21506;-74
2023/02/17 10:08:17;;;;;;;3.85;1.83;;;11.50;99.90;;;;;;5039891;28;20057;-75
2023/02/17 10:10:51;;;;;;;3.72;1.42;;;11.50;99.90;;;;;;5052906;28;20028;-75
2023/02/17 10:13:20;;;;;;;4.43;1.70;;;11.50;99.90;;;;;;5037970;28;20036;-75
2023/02/17 10:15:50;;;;;;;2.97;1.85;;;11.60;99.90;;;;;;5036050;28;20477;-75
2023/02/17 10:18:33;;;;;;;1.60;0.97;;;11.70;99.90;;;;;;5051589;28;20391;-76
2023/02/17 10:21:18;;;;;;;3.75;1.75;;;11.70;99.90;;;;;;5054492;28;20357;-74
2023/02/17 10:23:44;;;;;;;3.00;1.80;;;11.80;99.90;;;;;;5044262;28;20021;-74
2023/02/17 10:26:28;;;;;;;4.28;1.67;;;11.90;99.90;;;;;;5046638;28;20025;-74
2023/02/17 10:29:05;;;;;;;5.60;1.80;;;12.00;99.90;;;;;;5052834;28;20069;-75
2023/02/17 10:31:52;;;;;;;3.67;1.90;;;12.00;99.90;;;;;;5050367;28;20112;-74
2023/02/17 10:34:35;;;;;;;4.57;1.77;;;12.10;99.90;;;;;;5039879;28;20037;-75
2023/02/17 10:37:21;;;;;;;4.53;1.55;;;12.10;99.90;;;;;;5039018;28;20506;-75
2023/02/17 10:39:48;;;;;;;4.05;2.00;;;12.10;99.90;;;;;;5049320;28;20467;-75
2023/02/17 10:42:34;;;;;;;7.57;2.00;;;12.10;99.90;;;;;;5055382;28;20118;-74
2023/02/17 10:45:31;;;;;;;3.97;1.80;;;12.10;99.90;;;;;;5042236;28;20091;-75
2023/02/17 10:48:01;;;;;;;6.40;2.28;;;12.10;99.90;;;;;;5047579;28;20036;-75
2023/02/17 10:50:27;;;;;;;7.82;2.13;;;12.20;99.90;;;;;;5062538;28;20110;-74
2023/02/17 10:52:55;;;;;;;3.42;2.10;;;12.20;99.90;;;;;;5056598;28;20458;-79
2023/02/17 10:55:30;;;;;;;4.75;2.00;;;12.20;99.90;;;;;;5053457;28;20025;-75
2023/02/17 10:58:17;;;;;;;6.05;2.65;;;12.20;99.90;;;;;;5054199;28;20453;-77
2023/02/17 11:00:48;;;;;;;4.75;2.30;;;12.20;99.90;;;;;;5043614;28;20454;-75
2023/02/17 11:03:21;;;;;;;7.63;2.50;;;12.10;99.90;;;;;;5054396;28;20077;-74
2023/02/17 11:06:02;;;;;;;5.45;2.63;;;12.10;99.90;;;;;;5049208;28;20064;-80
2023/02/17 11:08:33;;;;;;;4.90;2.55;;;12.10;99.90;;;;;;5056299;28;20115;-78
2023/02/17 11:11:05;;;;;;;4.65;2.28;;;12.10;99.90;;;;;;5057535;28;20036;-76
2023/02/17 11:13:36;;;;;;;6.07;2.60;;;12.10;99.90;;;;;;5054626;28;20033;-77
2023/02/17 11:16:02;;;;;;;5.75;3.08;;;12.10;99.90;;;;;;5052324;28;20462;-74
2023/02/17 11:18:32;;;;;;;4.65;2.45;;;12.20;99.90;;;;;;5052586;28;20025;-76
2023/02/17 11:21:07;;;;;;;4.20;2.08;;;12.30;99.90;;;;;;5039929;28;20030;-82
2023/02/17 11:23:33;;;;;;;4.13;2.30;;;12.50;99.90;;;;;;5054695;28;20082;-75
2023/02/17 11:26:09;;;;;;;5.68;2.55;;;12.50;99.90;;;;;;5048051;28;20075;-75
2023/02/17 11:28:35;;;;;;;5.50;2.80;;;12.40;99.90;;;;;;5054092;28;20063;-75
2023/02/17 11:31:03;;;;;;;4.80;2.30;;;12.40;99.90;;;;;;5052297;28;20474;-75
2023/02/17 11:33:35;;;;;;;6.43;2.50;;;12.30;99.90;;;;;;5054215;28;20532;-75
2023/02/17 11:36:02;;;;;;;5.45;2.50;;;12.20;99.90;;;;;;5053383;28;20124;-75
2023/02/17 11:38:48;;;;;;;8.43;2.33;;;12.10;99.90;;;;;;5057813;28;20036;-75
2023/02/17 11:41:14;;;;;;;5.93;3.00;;;12.00;99.90;;;;;;5055621;28;20448;-75
2023/02/17 11:43:55;;;;;;;4.22;2.40;;;11.90;99.90;;;;;;5062361;28;20477;-77
2023/02/17 11:46:28;;;;;;;3.28;2.10;;;11.90;99.90;;;;;;5052044;28;20021;-75
2023/02/17 11:49:06;;;;;;;4.43;1.90;;;11.90;99.90;;;;;;5049588;28;20025;-75
2023/02/17 11:52:09;;;;;;;4.30;2.30;;;11.90;99.90;;;;;;5053817;28;20470;-75
2023/02/17 11:55:14;;;;;;;4.25;2.53;;;12.00;99.90;;;;;;5012042;28;20025;-75
2023/02/17 11:57:41;;;;;;;4.40;2.22;;;12.10;99.90;;;;;;5044918;28;20115;-75
2023/02/17 12:00:33;;;;;;;3.35;2.33;;;12.20;99.90;;;;;;5053365;28;20037;-75
2023/02/17 12:02:58;;;;;;;7.65;2.00;;;12.30;99.90;;;;;;5045244;28;20032;-75
2023/02/17 12:05:33;;;;;;;6.00;2.17;;;12.30;99.90;;;;;;5056241;28;20098;-75
2023/02/17 12:08:17;;;;;;;5.80;2.15;;;12.40;99.90;;;;;;5059764;28;20471;-75
2023/02/17 12:11:10;;;;;;;6.45;2.50;;;12.40;99.90;;;;;;5054060;28;20108;-75
2023/02/17 12:14:04;;;;;;;4.00;2.40;;;12.50;99.90;;;;;;5032835;28;20561;-75
2023/02/17 12:16:33;;;;;;;5.05;2.03;;;12.50;99.90;;;;;;5037043;28;20021;-75
2023/02/17 12:19:33;;;;;;;4.25;2.15;;;12.60;99.90;;;;;;5051428;28;20064;-77
2023/02/17 12:22:21;;;;;;;5.18;2.38;;;12.60;99.90;;;;;;5051624;28;20382;-78
2023/02/17 12:24:49;;;;;;;3.83;1.90;;;12.60;99.90;;;;;;5060894;28;20021;-76
2023/02/17 12:27:48;;;;;;;4.18;2.30;;;12.60;99.90;;;;;;5052783;28;20037;-75
2023/02/17 12:30:32;;;;;;;6.05;2.72;;;12.60;99.90;;;;;;5049342;28;20025;-75
2023/02/17 12:33:03;;;;;;;5.10;2.63;;;12.70;99.90;;;;;;5040315;28;20021;-76
2023/02/17 12:35:51;;;;;;;5.00;2.50;;;12.60;99.90;;;;;;5051387;28;20044;-75
2023/02/17 12:38:23;;;;;;;3.40;2.20;;;12.60;99.90;;;;;;5050649;28;20466;-75
2023/02/17 12:40:56;;;;;;;4.63;2.40;;;12.60;99.90;;;;;;5051513;28;20136;-75
2023/02/17 12:43:28;;;;;;;5.70;2.60;;;12.70;99.90;;;;;;5043971;28;20023;-75
2023/02/17 12:45:57;;;;;;;5.35;2.47;;;12.80;99.90;;;;;;5064549;28;20024;-75
2023/02/17 12:48:46;;;;;;;4.78;2.45;;;12.80;99.90;;;;;;5052536;28;20032;-75
2023/02/17 12:51:28;;;;;;;5.07;2.58;;;12.90;99.90;;;;;;5051852;28;20087;-76
2023/02/17 12:53:58;;;;;;;;;;;13.00;99.90;;;;;;5056893;28;20119;-75
2023/02/17 12:56:46;;;;;;;3.67;2.05;;;12.90;99.90;;;;;;5061662;28;19904;-76
2023/02/17 12:59:26;;;;;;;6.03;2.22;;;12.90;99.90;;;;;;5053284;28;20041;-76
2023/02/17 13:02:06;;;;;;;5.47;2.47;;;13.00;99.90;;;;;;5065199;28;20028;-75
2023/02/17 13:04:33;;;;;;;6.55;2.40;;;13.10;99.90;;;;;;5062129;28;20059;-75
2023/02/17 13:07:09;;;;;;;3.78;2.50;;;13.10;99.90;;;;;;5057014;28;20030;-80
2023/02/17 13:09:37;;;;;;;7.75;2.63;;;13.20;99.90;;;;;;5059282;28;20056;-75